createdAt,value
2022-10-07T00:00:14.629Z,88.24
2022-10-07T00:03:09.490Z,88.10
2022-10-07T00:05:42.934Z,88.12
2022-10-07T00:08:12.090Z,88.24
2022-10-07T00:10:43.710Z,88.15
2022-10-07T00:13:12.449Z,88.17
2022-10-07T00:15:41.132Z,88.12
2022-10-07T00:18:09.789Z,88.04
2022-10-07T00:23:26.930Z,88.10
2022-10-07T00:26:00.610Z,88.00
2022-10-07T00:28:30.481Z,88.14
2022-10-07T00:31:02.210Z,88.20
2022-10-07T00:33:33.790Z,88.11
2022-10-07T00:36:06.583Z,88.10
2022-10-07T00:38:39.903Z,88.10
2022-10-07T00:41:16.694Z,88.11
2022-10-07T00:43:46.551Z,88.35
2022-10-07T00:46:32.743Z,88.40
2022-10-07T00:49:13.992Z,88.44
2022-10-07T00:51:52.925Z,88.39
2022-10-07T00:54:26.372Z,88.47
2022-10-07T00:56:59.544Z,88.60
2022-10-07T00:59:28.364Z,88.47
2022-10-07T01:01:57.161Z,88.55
2022-10-07T01:04:25.925Z,88.62
2022-10-07T01:07:00.286Z,88.68
2022-10-07T01:09:29.424Z,88.79
2022-10-07T01:12:11.067Z,88.80
2022-10-07T01:15:10.813Z,88.80
2022-10-07T01:18:10.288Z,88.84
2022-10-07T01:20:52.963Z,88.64
2022-10-07T01:23:34.543Z,88.60
2022-10-07T01:26:15.647Z,88.57
2022-10-07T01:29:01.423Z,88.58
2022-10-07T01:32:00.264Z,88.62
2022-10-07T01:34:29.954Z,88.68
2022-10-07T01:37:02.664Z,88.78
2022-10-07T01:39:41.293Z,88.86
2022-10-07T01:42:11.933Z,88.74
2022-10-07T01:44:45.294Z,88.66
2022-10-07T01:47:20.564Z,88.61
2022-10-07T01:49:49.428Z,88.69
2022-10-07T01:53:00.295Z,88.71
2022-10-07T01:55:55.105Z,88.68
2022-10-07T01:58:50.704Z,88.70
2022-10-07T02:01:50.486Z,88.90
2022-10-07T02:04:39.404Z,89.00
2022-10-07T02:07:36.325Z,88.99
2022-10-07T02:10:22.033Z,88.90
2022-10-07T02:13:07.225Z,88.99
2022-10-07T02:16:26.500Z,88.96
2022-10-07T02:18:56.755Z,89.01
2022-10-07T02:21:34.848Z,89.06
2022-10-07T02:24:11.661Z,89.13
2022-10-07T02:26:51.765Z,89.10
2022-10-07T02:29:24.526Z,88.97
2022-10-07T02:32:08.066Z,88.99
2022-10-07T02:34:39.576Z,88.97
2022-10-07T02:37:26.187Z,88.90
2022-10-07T02:40:03.046Z,88.83
2022-10-07T02:42:40.507Z,88.89
2022-10-07T02:45:52.086Z,88.99
2022-10-07T02:48:33.366Z,89.08
2022-10-07T02:51:09.707Z,89.10
2022-10-07T02:53:41.427Z,89.10
2022-10-07T02:56:16.967Z,89.17
2022-10-07T02:58:48.036Z,89.21
2022-10-07T03:01:25.653Z,89.34
2022-10-07T03:03:54.996Z,89.51
2022-10-07T03:06:27.167Z,89.67
2022-10-07T03:09:00.778Z,89.75
2022-10-07T03:11:38.731Z,89.79
2022-10-07T03:14:08.086Z,89.80
2022-10-07T03:16:36.847Z,89.78
2022-10-07T03:19:05.646Z,89.72
2022-10-07T03:21:34.706Z,89.74
2022-10-07T03:24:05.551Z,89.74
2022-10-07T03:26:35.966Z,89.69
2022-10-07T03:29:10.626Z,89.65
2022-10-07T03:31:46.850Z,89.66
2022-10-07T03:34:23.449Z,89.67
2022-10-07T03:36:52.307Z,89.60
2022-10-07T03:39:26.966Z,89.73
2022-10-07T03:41:57.837Z,89.87
2022-10-07T03:44:26.506Z,89.81
2022-10-07T03:46:55.363Z,89.89
2022-10-07T03:49:29.186Z,89.93
2022-10-07T03:51:59.686Z,89.97
2022-10-07T03:54:32.628Z,89.90
2022-10-07T03:57:28.906Z,89.82
2022-10-07T04:00:02.143Z,89.80
2022-10-07T04:02:38.207Z,89.87
2022-10-07T04:05:30.296Z,89.96
2022-10-07T04:07:59.106Z,89.99
2022-10-07T04:10:28.706Z,90.04
2022-10-07T04:13:04.086Z,90.02
2022-10-07T04:15:32.686Z,90.03
2022-10-07T04:18:01.286Z,90.04
2022-10-07T04:20:34.507Z,90.10
2022-10-07T04:23:03.506Z,90.10
2022-10-07T04:25:35.286Z,90.14
2022-10-07T04:28:15.690Z,90.20
2022-10-07T04:30:55.186Z,90.24
2022-10-07T04:33:29.587Z,90.20
2022-10-07T04:36:09.907Z,90.21
2022-10-07T04:38:50.787Z,90.22
2022-10-07T04:41:25.047Z,90.25
2022-10-07T04:43:58.946Z,90.27
2022-10-07T04:46:29.048Z,90.29
2022-10-07T04:48:58.185Z,90.34
2022-10-07T04:51:27.107Z,90.39
2022-10-07T04:54:01.068Z,90.40
2022-10-07T04:56:40.097Z,90.35
2022-10-07T04:59:13.386Z,90.18
2022-10-07T05:01:42.453Z,90.10
2022-10-07T05:04:12.316Z,90.01
2022-10-07T05:06:41.226Z,89.98
2022-10-07T05:09:11.406Z,89.96
2022-10-07T05:11:39.995Z,89.96
2022-10-07T05:14:08.787Z,89.92
2022-10-07T05:16:39.462Z,89.87
2022-10-07T05:19:09.029Z,89.81
2022-10-07T05:21:37.748Z,89.90
2022-10-07T05:24:06.607Z,89.87
2022-10-07T05:26:35.929Z,89.89
2022-10-07T05:29:04.906Z,89.90
2022-10-07T05:31:33.790Z,89.81
2022-10-07T05:34:03.265Z,89.84
2022-10-07T05:36:32.090Z,89.83
2022-10-07T05:39:01.186Z,89.89
2022-10-07T05:41:30.067Z,89.95
2022-10-07T05:43:59.927Z,90.08
2022-10-07T05:46:28.986Z,90.15
2022-10-07T05:48:58.471Z,90.27
2022-10-07T05:51:27.167Z,90.41
2022-10-07T05:53:57.337Z,90.50
2022-10-07T05:56:26.176Z,90.40
2022-10-07T05:58:57.685Z,90.47
2022-10-07T06:01:28.466Z,90.41
2022-10-07T06:03:58.925Z,90.51
2022-10-07T06:06:27.686Z,90.51
2022-10-07T06:09:17.266Z,90.53
2022-10-07T06:12:04.587Z,90.73
2022-10-07T06:14:33.166Z,90.80
2022-10-07T06:17:02.135Z,90.76
2022-10-07T06:19:30.846Z,90.59
2022-10-07T06:21:59.946Z,90.52
2022-10-07T06:24:29.047Z,90.50
2022-10-07T06:26:59.747Z,90.45
2022-10-07T06:29:29.025Z,90.34
2022-10-07T06:31:57.866Z,90.17
2022-10-07T06:34:26.667Z,90.05
2022-10-07T06:36:55.446Z,89.99
2022-10-07T06:39:25.085Z,90.00
2022-10-07T06:41:57.746Z,90.01
2022-10-07T06:44:28.868Z,90.00
2022-10-07T06:46:58.387Z,90.00
2022-10-07T06:49:27.266Z,89.97
2022-10-07T06:51:56.265Z,89.90
2022-10-07T06:54:25.366Z,89.92
2022-10-07T06:56:54.466Z,89.81
2022-10-07T06:59:23.150Z,89.64
2022-10-07T07:01:51.826Z,89.48
2022-10-07T07:04:20.426Z,89.34
2022-10-07T07:06:49.309Z,89.23
2022-10-07T07:09:18.006Z,89.17
2022-10-07T07:11:46.927Z,89.07
2022-10-07T07:14:15.778Z,89.08
2022-10-07T07:16:45.299Z,88.96
2022-10-07T07:19:17.909Z,88.90
2022-10-07T07:21:49.088Z,88.91
2022-10-07T07:24:20.157Z,88.91
2022-10-07T07:26:55.410Z,88.73
2022-10-07T07:29:27.088Z,88.59
2022-10-07T07:31:56.045Z,88.51
2022-10-07T07:34:24.869Z,88.36
2022-10-07T07:36:53.846Z,88.36
2022-10-07T07:39:22.706Z,88.32
2022-10-07T07:41:51.905Z,88.17
2022-10-07T07:44:21.413Z,87.72
2022-10-07T07:46:53.985Z,87.71
2022-10-07T07:49:24.927Z,87.62
2022-10-07T07:51:53.826Z,87.56
2022-10-07T07:54:23.434Z,87.43
2022-10-07T07:56:52.224Z,87.23
2022-10-07T07:59:22.094Z,87.01
2022-10-07T08:01:50.746Z,86.90
2022-10-07T08:04:19.614Z,86.87
2022-10-07T08:06:48.614Z,86.49
2022-10-07T08:09:17.185Z,86.01
2022-10-07T08:11:45.987Z,86.07
2022-10-07T08:14:16.887Z,86.09
2022-10-07T08:16:45.610Z,85.72
2022-10-07T08:19:15.835Z,85.62
2022-10-07T08:21:44.710Z,85.53
2022-10-07T08:24:14.868Z,85.42
2022-10-07T08:26:43.863Z,85.14
2022-10-07T08:29:13.662Z,85.17
2022-10-07T08:31:42.937Z,84.11
2022-10-07T08:34:12.545Z,84.13
2022-10-07T08:36:44.315Z,83.84
2022-10-07T08:39:12.995Z,83.51
2022-10-07T08:42:18.594Z,83.33
2022-10-07T08:44:51.027Z,82.73
2022-10-07T08:47:44.105Z,82.46
2022-10-07T08:51:05.705Z,82.50
2022-10-07T08:53:38.097Z,82.04
2022-10-07T08:56:18.805Z,80.24
2022-10-07T08:58:59.226Z,80.59
2022-10-07T09:01:43.788Z,80.33
2022-10-07T09:04:33.868Z,80.27
2022-10-07T09:07:16.354Z,80.66
2022-10-07T09:10:25.306Z,80.51
2022-10-07T09:13:10.785Z,80.11
2022-10-07T09:15:49.909Z,79.91
2022-10-07T09:18:33.754Z,79.27
2022-10-07T09:21:12.476Z,79.03
2022-10-07T09:23:41.556Z,78.91
2022-10-07T09:26:13.885Z,78.79
2022-10-07T09:28:43.272Z,78.51
2022-10-07T09:31:18.268Z,78.32
2022-10-07T09:33:55.240Z,78.24
2022-10-07T09:36:26.485Z,78.27
2022-10-07T09:38:55.506Z,77.72
2022-10-07T09:41:32.605Z,76.81
2022-10-07T09:44:16.742Z,76.86
2022-10-07T09:46:54.146Z,77.41
2022-10-07T09:49:29.690Z,77.21
2022-10-07T09:52:28.946Z,77.29
2022-10-07T09:55:32.885Z,76.62
2022-10-07T09:58:05.087Z,76.20
2022-10-07T10:00:44.977Z,76.34
2022-10-07T10:03:14.901Z,75.58
2022-10-07T10:06:07.345Z,75.22
2022-10-07T10:08:40.028Z,74.98
2022-10-07T10:11:21.086Z,74.40
2022-10-07T10:13:52.967Z,74.60
2022-10-07T10:16:40.765Z,74.68
2022-10-07T10:19:28.027Z,74.20
2022-10-07T10:21:59.548Z,73.96
2022-10-07T10:24:51.326Z,73.59
2022-10-07T10:27:42.025Z,74.06
2022-10-07T10:30:21.366Z,73.36
2022-10-07T10:33:25.586Z,73.71
2022-10-07T10:36:06.666Z,73.57
2022-10-07T10:38:54.566Z,73.61
2022-10-07T10:42:02.802Z,73.61
2022-10-07T10:45:04.228Z,73.52
2022-10-07T10:48:15.246Z,73.27
2022-10-07T10:51:37.352Z,71.93
2022-10-07T10:54:57.888Z,71.68
2022-10-07T10:58:07.947Z,71.14
2022-10-07T11:01:34.548Z,71.34
2022-10-07T11:04:47.683Z,71.21
2022-10-07T11:07:30.223Z,70.82
2022-10-07T11:10:19.594Z,69.92
2022-10-07T11:12:59.365Z,69.87
2022-10-07T11:15:46.339Z,69.83
2022-10-07T11:18:47.925Z,69.40
2022-10-07T11:21:50.287Z,68.89
2022-10-07T11:24:44.066Z,68.22
2022-10-07T11:27:31.786Z,69.13
2022-10-07T11:30:43.767Z,69.21
2022-10-07T11:33:52.637Z,68.72
2022-10-07T11:36:39.407Z,67.82
2022-10-07T11:39:09.826Z,67.50
2022-10-07T11:42:20.347Z,67.80
2022-10-07T11:45:19.515Z,67.50
2022-10-07T11:48:30.342Z,68.86
2022-10-07T11:51:09.836Z,68.14
2022-10-07T11:53:40.887Z,68.28
2022-10-07T11:56:28.645Z,67.89
2022-10-07T11:59:08.466Z,67.26
2022-10-07T12:01:41.219Z,67.48
2022-10-07T12:04:22.546Z,67.13
2022-10-07T12:07:31.884Z,66.45
2022-10-07T12:10:06.604Z,65.50
2022-10-07T12:12:47.958Z,66.63
2022-10-07T12:15:45.106Z,67.20
2022-10-07T12:18:17.794Z,67.08
2022-10-07T12:20:56.251Z,67.19
2022-10-07T12:23:28.719Z,67.26
2022-10-07T12:26:26.281Z,66.75
2022-10-07T12:28:57.941Z,66.18
2022-10-07T12:31:26.855Z,66.46
2022-10-07T12:34:10.356Z,66.91
2022-10-07T12:36:41.539Z,66.61
2022-10-07T12:39:10.190Z,66.15
2022-10-07T12:41:43.457Z,66.46
2022-10-07T12:44:44.227Z,66.74
2022-10-07T12:47:44.995Z,66.50
2022-10-07T12:50:20.127Z,66.48
2022-10-07T12:52:57.289Z,66.27
2022-10-07T12:55:38.567Z,66.26
2022-10-07T12:59:37.888Z,65.45
2022-10-07T13:02:18.275Z,65.51
2022-10-07T13:05:06.189Z,65.44
2022-10-07T13:07:34.866Z,65.98
2022-10-07T13:10:45.333Z,65.17
2022-10-07T13:14:11.568Z,65.74
2022-10-07T13:17:17.528Z,66.03
2022-10-07T13:20:20.828Z,65.73
2022-10-07T13:22:50.613Z,64.78
2022-10-07T13:25:21.689Z,65.11
2022-10-07T13:27:59.496Z,65.37
2022-10-07T13:30:44.689Z,65.34
2022-10-07T13:33:31.756Z,64.36
2022-10-07T13:36:25.448Z,64.55
2022-10-07T13:39:22.148Z,65.45
2022-10-07T13:41:55.888Z,65.15
2022-10-07T13:44:29.794Z,65.35
2022-10-07T13:47:02.568Z,65.46
2022-10-07T13:49:43.867Z,65.58
2022-10-07T13:52:36.088Z,65.62
2022-10-07T13:55:31.067Z,65.80
2022-10-07T13:58:04.908Z,65.65
2022-10-07T14:00:42.710Z,66.22
2022-10-07T14:03:19.008Z,66.41
2022-10-07T14:05:52.407Z,66.24
2022-10-07T14:08:29.787Z,66.12
2022-10-07T14:11:21.887Z,66.05
2022-10-07T14:13:50.907Z,66.45
2022-10-07T14:16:24.942Z,66.37
2022-10-07T14:18:53.888Z,66.36
2022-10-07T14:21:22.787Z,66.27
2022-10-07T14:23:51.591Z,66.33
2022-10-07T14:26:20.688Z,66.60
2022-10-07T14:28:49.512Z,66.66
2022-10-07T14:31:39.974Z,66.48
2022-10-07T14:34:33.527Z,66.38
2022-10-07T14:37:29.745Z,66.53
2022-10-07T14:40:00.609Z,66.67
2022-10-07T14:42:36.431Z,66.36
2022-10-07T14:45:12.256Z,66.63
2022-10-07T14:47:44.587Z,66.64
2022-10-07T14:50:14.608Z,66.59
2022-10-07T14:52:48.310Z,66.82
2022-10-07T14:55:28.228Z,66.70
2022-10-07T14:57:56.947Z,66.92
2022-10-07T15:00:37.358Z,66.90
2022-10-07T15:03:08.577Z,67.35
2022-10-07T15:05:39.607Z,67.69
2022-10-07T15:11:01.798Z,67.95
2022-10-07T15:13:30.836Z,68.01
2022-10-07T15:16:00.189Z,68.23
2022-10-07T15:18:28.926Z,68.59
2022-10-07T15:20:58.319Z,68.61
2022-10-07T15:25:41.570Z,68.99
2022-10-07T15:28:10.506Z,69.10
2022-10-07T15:30:39.641Z,69.26
2022-10-07T15:33:09.157Z,69.51
2022-10-07T15:35:38.057Z,69.78
2022-10-07T15:38:06.858Z,70.06
2022-10-07T15:40:53.430Z,70.43
2022-10-07T15:43:22.545Z,70.80
2022-10-07T15:45:52.523Z,70.88
2022-10-07T15:48:26.377Z,71.33
2022-10-07T15:50:57.800Z,71.61
2022-10-07T15:53:26.517Z,72.09
2022-10-07T15:55:59.150Z,72.47
2022-10-07T15:58:31.081Z,72.64
2022-10-07T16:01:00.980Z,72.94
2022-10-07T16:03:38.910Z,73.34
2022-10-07T16:06:24.778Z,73.53
2022-10-07T16:08:58.418Z,73.70
2022-10-07T16:11:29.318Z,74.05
2022-10-07T16:14:02.265Z,74.34
2022-10-07T16:16:32.733Z,74.76
2022-10-07T16:19:02.320Z,75.12
2022-10-07T16:21:35.357Z,75.31
2022-10-07T16:24:14.138Z,75.66
2022-10-07T16:26:45.357Z,75.85
2022-10-07T16:29:39.677Z,75.87
2022-10-07T16:32:11.218Z,76.14
2022-10-07T16:34:43.773Z,76.46
2022-10-07T16:37:13.567Z,76.68
2022-10-07T16:39:42.701Z,76.68
2022-10-07T16:42:12.083Z,76.71
2022-10-07T16:44:40.902Z,77.02
2022-10-07T16:47:09.601Z,77.09
2022-10-07T16:49:38.580Z,77.24
2022-10-07T16:52:07.482Z,77.27
2022-10-07T16:54:37.971Z,77.52
2022-10-07T16:57:08.378Z,77.60
2022-10-07T16:59:37.420Z,77.87
2022-10-07T17:02:07.722Z,78.13
2022-10-07T17:04:36.739Z,78.41
2022-10-07T17:07:06.439Z,78.64
2022-10-07T17:09:35.180Z,78.89
2022-10-07T17:12:07.302Z,79.47
2022-10-07T17:14:37.500Z,79.77
2022-10-07T17:17:08.288Z,79.67
2022-10-07T17:19:37.200Z,79.80
2022-10-07T17:22:05.870Z,79.84
2022-10-07T17:24:36.160Z,79.92
2022-10-07T17:27:07.830Z,80.14
2022-10-07T17:29:38.961Z,80.30
2022-10-07T17:32:07.960Z,80.15
2022-10-07T17:34:36.889Z,80.17
2022-10-07T17:37:06.363Z,80.48
2022-10-07T17:39:35.240Z,80.47
2022-10-07T17:42:04.774Z,80.56
2022-10-07T17:44:33.529Z,80.77
2022-10-07T17:47:04.826Z,80.90
2022-10-07T17:49:33.800Z,80.85
2022-10-07T17:52:02.991Z,81.10
2022-10-07T17:54:31.880Z,81.45
2022-10-07T17:57:00.659Z,81.60
2022-10-07T17:59:29.860Z,81.59
2022-10-07T18:01:58.551Z,81.60
2022-10-07T18:04:27.499Z,81.65
2022-10-07T18:06:56.356Z,81.71
2022-10-07T18:09:25.220Z,81.80
2022-10-07T18:12:12.547Z,81.87
2022-10-07T18:15:04.299Z,81.90
2022-10-07T18:17:33.060Z,81.87
2022-10-07T18:20:01.959Z,81.92
2022-10-07T18:22:30.779Z,81.84
2022-10-07T18:25:00.028Z,81.78
2022-10-07T18:27:29.760Z,81.70
2022-10-07T18:29:58.540Z,81.70
2022-10-07T18:32:27.542Z,81.68
2022-10-07T18:34:56.719Z,81.60
2022-10-07T18:37:25.682Z,81.62
2022-10-07T18:39:54.401Z,81.70
2022-10-07T18:42:23.202Z,81.70
2022-10-07T18:44:52.759Z,81.74
2022-10-07T18:47:22.061Z,81.86
2022-10-07T18:49:52.180Z,81.91
2022-10-07T18:52:20.919Z,81.99
2022-10-07T18:54:49.697Z,81.92
2022-10-07T18:57:19.962Z,81.83
2022-10-07T18:59:48.820Z,81.74
2022-10-07T19:02:17.711Z,81.70
2022-10-07T19:04:46.507Z,81.86
2022-10-07T19:07:15.299Z,82.03
2022-10-07T19:09:44.090Z,82.03
2022-10-07T19:12:36.039Z,82.00
2022-10-07T19:15:05.722Z,82.14
2022-10-07T19:17:34.822Z,82.15
2022-10-07T19:20:05.248Z,82.12
2022-10-07T19:22:34.040Z,82.10
2022-10-07T19:25:21.359Z,82.08
2022-10-07T19:27:50.358Z,82.04
2022-10-07T19:30:19.340Z,81.94
2022-10-07T19:32:48.139Z,81.97
2022-10-07T19:35:17.340Z,82.00
2022-10-07T19:37:46.835Z,82.13
2022-10-07T19:40:15.939Z,82.20
2022-10-07T19:42:44.719Z,82.21
2022-10-07T19:45:14.840Z,82.28
2022-10-07T19:47:43.789Z,82.14
2022-10-07T19:50:13.499Z,82.14
2022-10-07T19:52:42.581Z,82.25
2022-10-07T19:55:11.540Z,82.37
2022-10-07T19:57:40.253Z,82.58
2022-10-07T20:00:11.402Z,82.63
2022-10-07T20:02:40.333Z,82.80
2022-10-07T20:05:10.240Z,82.82
2022-10-07T20:07:38.960Z,82.86
2022-10-07T20:10:08.483Z,82.92
2022-10-07T20:12:38.179Z,82.85
2022-10-07T20:15:09.581Z,82.80
2022-10-07T20:17:39.342Z,82.70
2022-10-07T20:20:11.482Z,82.52
2022-10-07T20:22:40.501Z,82.39
2022-10-07T20:25:10.121Z,82.28
2022-10-07T20:27:39.529Z,82.05
2022-10-07T20:30:17.833Z,81.83
2022-10-07T20:32:47.414Z,81.65
2022-10-07T20:35:16.650Z,81.46
2022-10-07T20:37:45.519Z,81.38
2022-10-07T20:40:33.261Z,81.25
2022-10-07T20:43:03.782Z,81.10
2022-10-07T20:45:52.524Z,80.98
2022-10-07T20:48:21.528Z,80.83
2022-10-07T20:50:50.231Z,80.81
2022-10-07T20:53:19.020Z,80.84
2022-10-07T20:55:47.799Z,80.79
2022-10-07T20:58:16.700Z,80.72
2022-10-07T21:00:45.688Z,80.69
2022-10-07T21:03:14.475Z,80.59
2022-10-07T21:05:43.562Z,80.60
2022-10-07T21:08:12.303Z,80.71
2022-10-07T21:10:41.245Z,80.80
2022-10-07T21:13:10.144Z,80.78
2022-10-07T21:15:39.422Z,80.80
2022-10-07T21:18:08.244Z,80.88
2022-10-07T21:20:36.930Z,81.03
2022-10-07T21:23:05.907Z,81.26
2022-10-07T21:25:34.821Z,81.30
2022-10-07T21:28:03.636Z,81.30
2022-10-07T21:30:33.298Z,81.28
2022-10-07T21:33:04.118Z,81.27
2022-10-07T21:35:33.538Z,81.22
2022-10-07T21:38:02.261Z,81.31
2022-10-07T21:40:31.198Z,81.40
2022-10-07T21:42:59.916Z,81.54
2022-10-07T21:45:29.010Z,81.64
2022-10-07T21:47:59.745Z,81.66
2022-10-07T21:50:29.058Z,81.72
2022-10-07T21:52:58.030Z,81.82
2022-10-07T21:55:26.723Z,81.89
2022-10-07T21:57:55.370Z,81.87
2022-10-07T22:00:40.398Z,81.75
2022-10-07T22:03:32.948Z,81.72
2022-10-07T22:06:13.278Z,81.91
2022-10-07T22:08:46.428Z,81.96
2022-10-07T22:11:22.598Z,81.91
2022-10-07T22:13:53.817Z,81.93
2022-10-07T22:16:24.717Z,81.91
2022-10-07T22:18:55.582Z,82.00
2022-10-07T22:21:31.882Z,82.05
2022-10-07T22:24:05.458Z,82.08
2022-10-07T22:26:47.126Z,82.09
2022-10-07T22:29:19.456Z,82.00
2022-10-07T22:31:48.937Z,81.97
2022-10-07T22:34:44.777Z,81.95
2022-10-07T22:37:14.077Z,82.10
2022-10-07T22:39:43.278Z,82.12
2022-10-07T22:42:12.342Z,82.16
2022-10-07T22:44:41.401Z,82.24
2022-10-07T22:50:24.966Z,82.85
2022-10-07T22:52:54.818Z,82.92
2022-10-07T22:55:28.558Z,82.91
2022-10-07T22:58:00.738Z,82.94
2022-10-07T23:00:29.549Z,82.96
2022-10-07T23:02:58.446Z,83.05
2022-10-07T23:05:44.578Z,83.24
2022-10-07T23:08:19.206Z,83.43
2022-10-07T23:11:02.584Z,83.35
2022-10-07T23:13:37.178Z,83.40
2022-10-07T23:16:12.506Z,83.43
2022-10-07T23:18:45.459Z,83.40
2022-10-07T23:21:25.697Z,83.81
2022-10-07T23:24:06.090Z,84.23
2022-10-07T23:26:38.857Z,84.18
2022-10-07T23:29:08.659Z,83.86
2022-10-07T23:31:37.479Z,84.09
2022-10-07T23:34:12.880Z,84.28
2022-10-07T23:36:46.718Z,84.24
2022-10-07T23:39:23.635Z,84.31
2022-10-07T23:41:58.758Z,84.26
2022-10-07T23:44:32.918Z,84.15
2022-10-07T23:47:02.259Z,84.04
2022-10-07T23:49:35.758Z,83.89
2022-10-07T23:52:04.798Z,83.97
2022-10-07T23:54:33.638Z,84.23
2022-10-07T23:57:02.299Z,84.33
2022-10-07T23:59:31.057Z,84.48
